sensor_id;sensor_type;location;lat;lon;timestamp;temperature;humidity
21672;DHT22;10997;52.242;8.168;2024-03-07T00:03:55;3.80;99.90
21672;DHT22;10997;52.242;8.168;2024-03-07T00:08:56;3.70;99.90
21672;DHT22;10997;52.242;8.168;2024-03-07T00:13:56;3.60;99.90
21672;DHT22;10997;52.242;8.168;2024-03-07T00:18:57;3.50;99.90
21672;DHT22;10997;52.242;8.168;2024-03-07T00:23:57;3.40;99.90
21672;DHT22;10997;52.242;8.168;2024-03-07T00:29:01;3.30;99.90
21672;DHT22;10997;52.242;8.168;2024-03-07T00:39:58;3.10;99.90
21672;DHT22;10997;52.242;8.168;2024-03-07T00:44:59;3.10;99.90
21672;DHT22;10997;52.242;8.168;2024-03-07T00:49:59;3.00;99.90
21672;DHT22;10997;52.242;8.168;2024-03-07T00:55:01;2.90;99.90
21672;DHT22;10997;52.242;8.168;2024-03-07T01:00:02;2.80;99.90
21672;DHT22;10997;52.242;8.168;2024-03-07T01:05:03;2.70;99.90
21672;DHT22;10997;52.242;8.168;2024-03-07T01:10:10;2.60;99.90
21672;DHT22;10997;52.242;8.168;2024-03-07T01:15:10;2.50;99.90
21672;DHT22;10997;52.242;8.168;2024-03-07T01:20:12;2.40;99.90
21672;DHT22;10997;52.242;8.168;2024-03-07T01:25:12;2.30;99.90
21672;DHT22;10997;52.242;8.168;2024-03-07T01:30:13;2.20;99.90
21672;DHT22;10997;52.242;8.168;2024-03-07T01:35:13;2.10;99.90
21672;DHT22;10997;52.242;8.168;2024-03-07T01:40:14;2.10;99.90
21672;DHT22;10997;52.242;8.168;2024-03-07T01:45:15;2.10;99.90
21672;DHT22;10997;52.242;8.168;2024-03-07T01:50:16;2.20;99.90
21672;DHT22;10997;52.242;8.168;2024-03-07T01:55:18;2.10;99.90
21672;DHT22;10997;52.242;8.168;2024-03-07T02:00:19;2.00;99.90
21672;DHT22;10997;52.242;8.168;2024-03-07T02:05:22;2.00;99.90
21672;DHT22;10997;52.242;8.168;2024-03-07T02:10:27;1.90;99.90
21672;DHT22;10997;52.242;8.168;2024-03-07T02:15:28;1.90;99.90
21672;DHT22;10997;52.242;8.168;2024-03-07T02:20:29;1.90;99.90
21672;DHT22;10997;52.242;8.168;2024-03-07T02:25:29;1.80;99.90
21672;DHT22;10997;52.242;8.168;2024-03-07T02:30:31;1.80;99.90
21672;DHT22;10997;52.242;8.168;2024-03-07T02:35:34;1.60;99.90
21672;DHT22;10997;52.242;8.168;2024-03-07T02:40:35;1.50;99.90
21672;DHT22;10997;52.242;8.168;2024-03-07T02:45:36;1.40;99.90
21672;DHT22;10997;52.242;8.168;2024-03-07T02:50:36;1.40;99.90
21672;DHT22;10997;52.242;8.168;2024-03-07T02:55:41;1.40;99.90
21672;DHT22;10997;52.242;8.168;2024-03-07T03:00:42;1.30;99.90
21672;DHT22;10997;52.242;8.168;2024-03-07T03:05:42;1.30;99.90
21672;DHT22;10997;52.242;8.168;2024-03-07T03:10:43;1.20;99.90
21672;DHT22;10997;52.242;8.168;2024-03-07T03:15:44;1.10;99.90
21672;DHT22;10997;52.242;8.168;2024-03-07T03:20:45;1.10;99.90
21672;DHT22;10997;52.242;8.168;2024-03-07T03:25:48;1.00;99.90
21672;DHT22;10997;52.242;8.168;2024-03-07T03:30:50;1.00;99.90
21672;DHT22;10997;52.242;8.168;2024-03-07T03:35:52;1.00;99.90
21672;DHT22;10997;52.242;8.168;2024-03-07T03:40:52;0.90;99.90
21672;DHT22;10997;52.242;8.168;2024-03-07T03:45:53;0.80;99.90
21672;DHT22;10997;52.242;8.168;2024-03-07T03:50:53;0.80;99.90
21672;DHT22;10997;52.242;8.168;2024-03-07T03:55:54;0.70;99.90
21672;DHT22;10997;52.242;8.168;2024-03-07T04:00:55;0.70;99.90
21672;DHT22;10997;52.242;8.168;2024-03-07T04:05:55;0.60;99.90
21672;DHT22;10997;52.242;8.168;2024-03-07T04:10:56;0.50;99.90
21672;DHT22;10997;52.242;8.168;2024-03-07T04:15:56;0.50;99.90
21672;DHT22;10997;52.242;8.168;2024-03-07T04:20:57;0.50;99.90
21672;DHT22;10997;52.242;8.168;2024-03-07T04:25:58;0.50;99.90
21672;DHT22;10997;52.242;8.168;2024-03-07T04:30:58;0.40;99.90
21672;DHT22;10997;52.242;8.168;2024-03-07T04:35:59;0.40;99.90
21672;DHT22;10997;52.242;8.168;2024-03-07T04:41:03;0.30;99.90
21672;DHT22;10997;52.242;8.168;2024-03-07T04:46:04;0.30;99.90
21672;DHT22;10997;52.242;8.168;2024-03-07T04:51:07;0.20;99.90
21672;DHT22;10997;52.242;8.168;2024-03-07T04:56:08;0.20;99.90
21672;DHT22;10997;52.242;8.168;2024-03-07T05:01:10;0.20;99.90
21672;DHT22;10997;52.242;8.168;2024-03-07T05:06:10;0.20;99.90
21672;DHT22;10997;52.242;8.168;2024-03-07T05:11:11;0.20;99.90
21672;DHT22;10997;52.242;8.168;2024-03-07T05:16:11;0.10;99.90
21672;DHT22;10997;52.242;8.168;2024-03-07T05:21:12;0.10;99.90
21672;DHT22;10997;52.242;8.168;2024-03-07T05:26:32;0.00;99.90
21672;DHT22;10997;52.242;8.168;2024-03-07T05:31:36;0.00;99.90
21672;DHT22;10997;52.242;8.168;2024-03-07T05:36:37;0.10;99.90
21672;DHT22;10997;52.242;8.168;2024-03-07T05:41:45;0.20;99.90
21672;DHT22;10997;52.242;8.168;2024-03-07T05:46:46;0.40;99.90
21672;DHT22;10997;52.242;8.168;2024-03-07T05:51:47;0.60;99.90
21672;DHT22;10997;52.242;8.168;2024-03-07T05:56:47;0.70;99.90
21672;DHT22;10997;52.242;8.168;2024-03-07T06:01:49;0.80;99.90
21672;DHT22;10997;52.242;8.168;2024-03-07T06:06:51;0.90;99.90
21672;DHT22;10997;52.242;8.168;2024-03-07T06:11:52;1.00;99.90
21672;DHT22;10997;52.242;8.168;2024-03-07T06:16:52;1.20;99.90
21672;DHT22;10997;52.242;8.168;2024-03-07T06:21:53;1.30;99.90
21672;DHT22;10997;52.242;8.168;2024-03-07T06:26:54;1.40;99.90
21672;DHT22;10997;52.242;8.168;2024-03-07T06:32:04;1.50;99.90
21672;DHT22;10997;52.242;8.168;2024-03-07T06:37:06;1.60;99.90
21672;DHT22;10997;52.242;8.168;2024-03-07T06:42:09;1.70;99.90
21672;DHT22;10997;52.242;8.168;2024-03-07T06:47:09;1.70;99.90
21672;DHT22;10997;52.242;8.168;2024-03-07T06:52:10;1.80;99.90
21672;DHT22;10997;52.242;8.168;2024-03-07T06:57:10;2.00;99.90
21672;DHT22;10997;52.242;8.168;2024-03-07T07:02:11;2.00;99.90
21672;DHT22;10997;52.242;8.168;2024-03-07T07:07:11;2.00;99.90
21672;DHT22;10997;52.242;8.168;2024-03-07T07:12:13;2.10;99.90
21672;DHT22;10997;52.242;8.168;2024-03-07T07:17:15;2.20;99.90
21672;DHT22;10997;52.242;8.168;2024-03-07T07:22:15;2.20;99.90
21672;DHT22;10997;52.242;8.168;2024-03-07T07:27:17;2.20;99.90
21672;DHT22;10997;52.242;8.168;2024-03-07T07:32:19;2.20;99.90
21672;DHT22;10997;52.242;8.168;2024-03-07T07:37:19;2.40;99.90
21672;DHT22;10997;52.242;8.168;2024-03-07T07:42:20;2.50;99.90
21672;DHT22;10997;52.242;8.168;2024-03-07T07:47:20;2.60;99.90
21672;DHT22;10997;52.242;8.168;2024-03-07T07:52:21;2.70;99.90
21672;DHT22;10997;52.242;8.168;2024-03-07T07:57:22;2.80;99.90
21672;DHT22;10997;52.242;8.168;2024-03-07T08:02:22;3.00;99.90
21672;DHT22;10997;52.242;8.168;2024-03-07T08:07:23;3.00;99.90
21672;DHT22;10997;52.242;8.168;2024-03-07T08:12:23;3.00;99.90
21672;DHT22;10997;52.242;8.168;2024-03-07T08:17:24;3.10;99.90
21672;DHT22;10997;52.242;8.168;2024-03-07T08:22:25;3.10;99.90
21672;DHT22;10997;52.242;8.168;2024-03-07T08:27:26;3.10;99.90
21672;DHT22;10997;52.242;8.168;2024-03-07T08:32:26;3.20;99.90
21672;DHT22;10997;52.242;8.168;2024-03-07T08:37:27;3.30;99.90
21672;DHT22;10997;52.242;8.168;2024-03-07T08:42:28;3.30;99.90
21672;DHT22;10997;52.242;8.168;2024-03-07T08:47:28;3.40;99.90
21672;DHT22;10997;52.242;8.168;2024-03-07T08:52:29;3.40;99.90
21672;DHT22;10997;52.242;8.168;2024-03-07T08:57:30;3.50;99.90
21672;DHT22;10997;52.242;8.168;2024-03-07T09:02:31;3.50;99.90
21672;DHT22;10997;52.242;8.168;2024-03-07T09:07:32;3.50;99.90
21672;DHT22;10997;52.242;8.168;2024-03-07T09:12:32;3.50;99.90
21672;DHT22;10997;52.242;8.168;2024-03-07T09:17:33;3.60;99.90
21672;DHT22;10997;52.242;8.168;2024-03-07T09:22:34;3.70;99.90
21672;DHT22;10997;52.242;8.168;2024-03-07T09:27:34;3.80;99.90
21672;DHT22;10997;52.242;8.168;2024-03-07T09:32:35;3.80;99.90
21672;DHT22;10997;52.242;8.168;2024-03-07T09:37:41;3.70;99.90
21672;DHT22;10997;52.242;8.168;2024-03-07T09:42:47;3.80;99.90
21672;DHT22;10997;52.242;8.168;2024-03-07T09:47:50;3.80;99.90
21672;DHT22;10997;52.242;8.168;2024-03-07T09:52:52;3.90;99.90
21672;DHT22;10997;52.242;8.168;2024-03-07T09:57:53;3.90;99.90
21672;DHT22;10997;52.242;8.168;2024-03-07T10:03:15;3.80;99.90
21672;DHT22;10997;52.242;8.168;2024-03-07T10:08:18;3.90;99.90
21672;DHT22;10997;52.242;8.168;2024-03-07T10:13:18;4.00;99.90
21672;DHT22;10997;52.242;8.168;2024-03-07T10:18:19;4.00;99.90
21672;DHT22;10997;52.242;8.168;2024-03-07T10:23:23;4.10;99.90
21672;DHT22;10997;52.242;8.168;2024-03-07T10:28:25;4.20;99.90
21672;DHT22;10997;52.242;8.168;2024-03-07T10:33:27;4.20;99.90
21672;DHT22;10997;52.242;8.168;2024-03-07T10:38:28;4.20;99.90
21672;DHT22;10997;52.242;8.168;2024-03-07T10:43:29;4.30;99.90
21672;DHT22;10997;52.242;8.168;2024-03-07T10:48:34;4.30;99.90
21672;DHT22;10997;52.242;8.168;2024-03-07T10:59:22;4.60;99.90
21672;DHT22;10997;52.242;8.168;2024-03-07T11:04:24;4.70;99.90
21672;DHT22;10997;52.242;8.168;2024-03-07T11:09:25;4.60;99.90
21672;DHT22;10997;52.242;8.168;2024-03-07T11:14:34;4.70;99.90
21672;DHT22;10997;52.242;8.168;2024-03-07T11:19:35;4.70;99.90
21672;DHT22;10997;52.242;8.168;2024-03-07T11:24:39;4.90;99.90
21672;DHT22;10997;52.242;8.168;2024-03-07T11:29:50;5.00;99.90
21672;DHT22;10997;52.242;8.168;2024-03-07T11:34:53;5.00;99.90
21672;DHT22;10997;52.242;8.168;2024-03-07T11:39:54;5.20;99.90
21672;DHT22;10997;52.242;8.168;2024-03-07T11:44:59;5.40;99.90
21672;DHT22;10997;52.242;8.168;2024-03-07T11:50:00;5.60;99.90
21672;DHT22;10997;52.242;8.168;2024-03-07T11:55:01;5.50;99.90
21672;DHT22;10997;52.242;8.168;2024-03-07T12:00:05;5.70;99.90
21672;DHT22;10997;52.242;8.168;2024-03-07T12:05:11;5.70;99.90
21672;DHT22;10997;52.242;8.168;2024-03-07T12:10:16;5.70;99.90
21672;DHT22;10997;52.242;8.168;2024-03-07T12:15:20;5.50;99.90
21672;DHT22;10997;52.242;8.168;2024-03-07T12:20:21;5.40;99.90
21672;DHT22;10997;52.242;8.168;2024-03-07T12:25:32;5.30;99.90
21672;DHT22;10997;52.242;8.168;2024-03-07T12:30:49;5.20;99.90
21672;DHT22;10997;52.242;8.168;2024-03-07T12:35:52;5.40;99.90
21672;DHT22;10997;52.242;8.168;2024-03-07T12:41:13;5.40;99.90
21672;DHT22;10997;52.242;8.168;2024-03-07T12:46:15;5.50;99.90
21672;DHT22;10997;52.242;8.168;2024-03-07T12:51:17;5.60;99.90
21672;DHT22;10997;52.242;8.168;2024-03-07T12:56:18;5.60;99.90
21672;DHT22;10997;52.242;8.168;2024-03-07T13:01:19;5.60;99.90
21672;DHT22;10997;52.242;8.168;2024-03-07T13:06:20;5.60;99.90
21672;DHT22;10997;52.242;8.168;2024-03-07T13:11:25;5.70;99.90
21672;DHT22;10997;52.242;8.168;2024-03-07T13:16:32;5.80;99.90
21672;DHT22;10997;52.242;8.168;2024-03-07T13:21:33;6.00;99.90
21672;DHT22;10997;52.242;8.168;2024-03-07T13:26:35;6.10;99.90
21672;DHT22;10997;52.242;8.168;2024-03-07T13:31:36;6.60;99.90
21672;DHT22;10997;52.242;8.168;2024-03-07T13:36:37;6.80;99.90
21672;DHT22;10997;52.242;8.168;2024-03-07T13:41:38;7.00;99.90
21672;DHT22;10997;52.242;8.168;2024-03-07T13:46:39;6.90;99.90
21672;DHT22;10997;52.242;8.168;2024-03-07T13:51:40;6.90;99.90
21672;DHT22;10997;52.242;8.168;2024-03-07T13:57:03;7.00;99.90
21672;DHT22;10997;52.242;8.168;2024-03-07T14:02:14;7.10;99.90
21672;DHT22;10997;52.242;8.168;2024-03-07T14:07:57;7.20;99.90
21672;DHT22;10997;52.242;8.168;2024-03-07T14:39:32;7.20;99.90
21672;DHT22;10997;52.242;8.168;2024-03-07T14:44:38;7.10;99.90
21672;DHT22;10997;52.242;8.168;2024-03-07T14:49:42;7.00;99.90
21672;DHT22;10997;52.242;8.168;2024-03-07T14:54:43;7.10;99.90
21672;DHT22;10997;52.242;8.168;2024-03-07T14:59:44;7.20;99.90
21672;DHT22;10997;52.242;8.168;2024-03-07T15:04:44;7.20;99.90
21672;DHT22;10997;52.242;8.168;2024-03-07T15:09:49;7.20;99.90
21672;DHT22;10997;52.242;8.168;2024-03-07T15:14:50;7.40;99.90
21672;DHT22;10997;52.242;8.168;2024-03-07T15:19:51;7.50;99.90
21672;DHT22;10997;52.242;8.168;2024-03-07T15:24:52;7.70;99.90
21672;DHT22;10997;52.242;8.168;2024-03-07T15:29:52;7.70;99.90
21672;DHT22;10997;52.242;8.168;2024-03-07T15:34:55;7.60;99.90
21672;DHT22;10997;52.242;8.168;2024-03-07T15:39:55;7.50;99.90
21672;DHT22;10997;52.242;8.168;2024-03-07T15:44:56;7.30;99.90
21672;DHT22;10997;52.242;8.168;2024-03-07T15:49:57;7.10;99.90
21672;DHT22;10997;52.242;8.168;2024-03-07T15:54:58;7.10;99.90
21672;DHT22;10997;52.242;8.168;2024-03-07T15:59:58;7.00;99.90
21672;DHT22;10997;52.242;8.168;2024-03-07T16:04:59;6.90;99.90
21672;DHT22;10997;52.242;8.168;2024-03-07T16:09:59;6.80;99.90
21672;DHT22;10997;52.242;8.168;2024-03-07T16:15:01;6.90;99.90
21672;DHT22;10997;52.242;8.168;2024-03-07T16:20:02;6.90;99.90
21672;DHT22;10997;52.242;8.168;2024-03-07T16:25:03;7.00;99.90
21672;DHT22;10997;52.242;8.168;2024-03-07T16:30:07;7.00;99.90
21672;DHT22;10997;52.242;8.168;2024-03-07T16:35:11;7.00;99.90
21672;DHT22;10997;52.242;8.168;2024-03-07T16:40:17;6.90;99.90
21672;DHT22;10997;52.242;8.168;2024-03-07T16:50:24;6.80;99.90
21672;DHT22;10997;52.242;8.168;2024-03-07T16:55:27;6.70;99.90
21672;DHT22;10997;52.242;8.168;2024-03-07T17:00:30;6.60;99.90
21672;DHT22;10997;52.242;8.168;2024-03-07T17:05:33;6.60;99.90
21672;DHT22;10997;52.242;8.168;2024-03-07T17:10:36;6.50;99.90
21672;DHT22;10997;52.242;8.168;2024-03-07T17:15:39;6.40;99.90
21672;DHT22;10997;52.242;8.168;2024-03-07T17:20:40;6.20;99.90
21672;DHT22;10997;52.242;8.168;2024-03-07T17:25:43;6.00;99.90
21672;DHT22;10997;52.242;8.168;2024-03-07T17:30:44;5.80;99.90
21672;DHT22;10997;52.242;8.168;2024-03-07T17:35:45;5.70;99.90
21672;DHT22;10997;52.242;8.168;2024-03-07T17:40:46;5.50;99.90
21672;DHT22;10997;52.242;8.168;2024-03-07T17:45:46;5.30;99.90
21672;DHT22;10997;52.242;8.168;2024-03-07T17:50:49;5.20;99.90
21672;DHT22;10997;52.242;8.168;2024-03-07T17:55:50;5.10;99.90
21672;DHT22;10997;52.242;8.168;2024-03-07T18:00:51;5.00;99.90
21672;DHT22;10997;52.242;8.168;2024-03-07T18:05:53;4.80;99.90
21672;DHT22;10997;52.242;8.168;2024-03-07T18:10:54;4.80;99.90
21672;DHT22;10997;52.242;8.168;2024-03-07T18:15:55;4.70;99.90
21672;DHT22;10997;52.242;8.168;2024-03-07T18:20:56;4.60;99.90
21672;DHT22;10997;52.242;8.168;2024-03-07T18:25:57;4.50;99.90
21672;DHT22;10997;52.242;8.168;2024-03-07T18:31:00;4.40;99.90
21672;DHT22;10997;52.242;8.168;2024-03-07T18:36:14;4.30;99.90
21672;DHT22;10997;52.242;8.168;2024-03-07T18:41:15;4.10;99.90
21672;DHT22;10997;52.242;8.168;2024-03-07T18:46:16;4.00;99.90
21672;DHT22;10997;52.242;8.168;2024-03-07T18:51:17;3.90;99.90
21672;DHT22;10997;52.242;8.168;2024-03-07T18:56:23;3.80;99.90
21672;DHT22;10997;52.242;8.168;2024-03-07T19:01:27;3.80;99.90
21672;DHT22;10997;52.242;8.168;2024-03-07T19:06:36;3.80;99.90
21672;DHT22;10997;52.242;8.168;2024-03-07T19:11:38;3.70;99.90
21672;DHT22;10997;52.242;8.168;2024-03-07T19:16:47;3.70;99.90
21672;DHT22;10997;52.242;8.168;2024-03-07T19:21:48;3.70;99.90
21672;DHT22;10997;52.242;8.168;2024-03-07T19:26:49;3.60;99.90
21672;DHT22;10997;52.242;8.168;2024-03-07T19:31:49;3.50;99.90
21672;DHT22;10997;52.242;8.168;2024-03-07T19:36:54;3.40;99.90
21672;DHT22;10997;52.242;8.168;2024-03-07T19:41:57;3.30;99.90
21672;DHT22;10997;52.242;8.168;2024-03-07T19:46:58;3.20;99.90
21672;DHT22;10997;52.242;8.168;2024-03-07T19:51:59;3.10;99.90
21672;DHT22;10997;52.242;8.168;2024-03-07T19:57:17;3.10;99.90
21672;DHT22;10997;52.242;8.168;2024-03-07T20:02:21;3.00;99.90
21672;DHT22;10997;52.242;8.168;2024-03-07T20:07:22;3.00;99.90
21672;DHT22;10997;52.242;8.168;2024-03-07T20:12:23;2.90;99.90
21672;DHT22;10997;52.242;8.168;2024-03-07T20:17:24;2.70;99.90
21672;DHT22;10997;52.242;8.168;2024-03-07T20:22:25;2.60;99.90
21672;DHT22;10997;52.242;8.168;2024-03-07T20:27:26;2.50;99.90
21672;DHT22;10997;52.242;8.168;2024-03-07T20:32:27;2.40;99.90
21672;DHT22;10997;52.242;8.168;2024-03-07T20:37:28;2.30;99.90
21672;DHT22;10997;52.242;8.168;2024-03-07T20:42:29;2.20;99.90
21672;DHT22;10997;52.242;8.168;2024-03-07T20:47:29;2.20;99.90
21672;DHT22;10997;52.242;8.168;2024-03-07T20:52:30;2.10;99.90
21672;DHT22;10997;52.242;8.168;2024-03-07T20:57:32;2.10;99.90
21672;DHT22;10997;52.242;8.168;2024-03-07T21:02:33;2.00;99.90
21672;DHT22;10997;52.242;8.168;2024-03-07T21:07:34;1.90;99.90
21672;DHT22;10997;52.242;8.168;2024-03-07T21:12:38;1.90;99.90
21672;DHT22;10997;52.242;8.168;2024-03-07T21:17:40;1.80;99.90
21672;DHT22;10997;52.242;8.168;2024-03-07T21:22:45;1.70;99.90
21672;DHT22;10997;52.242;8.168;2024-03-07T21:27:47;1.70;99.90
21672;DHT22;10997;52.242;8.168;2024-03-07T21:32:48;1.60;99.90
21672;DHT22;10997;52.242;8.168;2024-03-07T21:37:49;1.60;99.90
21672;DHT22;10997;52.242;8.168;2024-03-07T21:42:49;1.60;99.90
21672;DHT22;10997;52.242;8.168;2024-03-07T21:47:50;1.50;99.90
21672;DHT22;10997;52.242;8.168;2024-03-07T21:52:51;1.40;99.90
21672;DHT22;10997;52.242;8.168;2024-03-07T21:57:51;1.40;99.90
21672;DHT22;10997;52.242;8.168;2024-03-07T22:02:56;1.30;99.90
21672;DHT22;10997;52.242;8.168;2024-03-07T22:07:56;1.30;99.90
21672;DHT22;10997;52.242;8.168;2024-03-07T22:12:58;1.30;99.90
21672;DHT22;10997;52.242;8.168;2024-03-07T22:17:59;1.20;99.90
21672;DHT22;10997;52.242;8.168;2024-03-07T22:22:59;1.20;99.90
21672;DHT22;10997;52.242;8.168;2024-03-07T22:28:00;1.10;99.90
21672;DHT22;10997;52.242;8.168;2024-03-07T22:33:04;1.00;99.90
21672;DHT22;10997;52.242;8.168;2024-03-07T22:38:07;0.90;99.90
21672;DHT22;10997;52.242;8.168;2024-03-07T22:43:09;0.80;99.90
21672;DHT22;10997;52.242;8.168;2024-03-07T22:48:10;0.70;99.90
21672;DHT22;10997;52.242;8.168;2024-03-07T22:53:11;0.70;99.90
21672;DHT22;10997;52.242;8.168;2024-03-07T22:58:12;0.60;99.90
21672;DHT22;10997;52.242;8.168;2024-03-07T23:03:13;0.50;99.90
21672;DHT22;10997;52.242;8.168;2024-03-07T23:08:14;0.50;99.90
21672;DHT22;10997;52.242;8.168;2024-03-07T23:13:15;0.40;99.90
21672;DHT22;10997;52.242;8.168;2024-03-07T23:18:16;0.50;99.90
21672;DHT22;10997;52.242;8.168;2024-03-07T23:23:17;0.40;99.90
21672;DHT22;10997;52.242;8.168;2024-03-07T23:28:17;0.40;99.90
21672;DHT22;10997;52.242;8.168;2024-03-07T23:33:19;0.40;99.90
21672;DHT22;10997;52.242;8.168;2024-03-07T23:38:20;0.40;99.90
21672;DHT22;10997;52.242;8.168;2024-03-07T23:43:22;0.30;99.90
21672;DHT22;10997;52.242;8.168;2024-03-07T23:48:24;0.20;99.90
21672;DHT22;10997;52.242;8.168;2024-03-07T23:53:25;0.30;99.90
21672;DHT22;10997;52.242;8.168;2024-03-07T23:58:27;0.20;99.90
